createdAt,value
2022-12-12T00:01:21.701Z,89.84
2022-12-12T00:03:48.522Z,90.66
2022-12-12T00:06:15.431Z,90.30
2022-12-12T00:08:42.132Z,89.51
2022-12-12T00:11:09.333Z,90.43
2022-12-12T00:13:37.058Z,90.73
2022-12-12T00:16:08.054Z,89.88
2022-12-12T00:18:37.013Z,90.77
2022-12-12T00:21:06.532Z,90.49
2022-12-12T00:23:33.310Z,89.69
2022-12-12T00:26:04.103Z,90.58
2022-12-12T00:28:30.655Z,90.76
2022-12-12T00:30:57.930Z,91.33
2022-12-12T00:33:24.562Z,90.23
2022-12-12T00:35:54.699Z,91.28
2022-12-12T00:38:23.338Z,89.86
2022-12-12T00:40:54.905Z,89.72
2022-12-12T00:43:21.600Z,90.49
2022-12-12T00:45:48.076Z,89.77
2022-12-12T00:48:14.535Z,89.97
2022-12-12T00:50:41.071Z,90.70
2022-12-12T00:53:07.518Z,89.85
2022-12-12T00:55:33.963Z,90.43
2022-12-12T00:58:00.540Z,90.87
2022-12-12T01:00:27.744Z,90.19
2022-12-12T01:02:56.821Z,90.51
2022-12-12T01:05:24.161Z,90.37
2022-12-12T01:07:50.685Z,91.13
2022-12-12T01:10:17.428Z,90.15
2022-12-12T01:12:44.005Z,90.22
2022-12-12T01:15:11.904Z,90.59
2022-12-12T01:17:38.865Z,89.62
2022-12-12T01:20:07.429Z,89.21
2022-12-12T01:22:33.993Z,88.76
2022-12-12T01:25:00.815Z,89.59
2022-12-12T01:27:27.881Z,89.85
2022-12-12T01:29:56.037Z,89.19
2022-12-12T01:32:22.747Z,89.33
2022-12-12T01:34:49.304Z,88.47
2022-12-12T01:37:15.798Z,89.28
2022-12-12T01:39:42.286Z,88.44
2022-12-12T01:42:17.368Z,89.04
2022-12-12T01:44:50.202Z,89.47
2022-12-12T01:47:20.150Z,89.08
2022-12-12T01:49:57.833Z,88.17
2022-12-12T01:52:33.137Z,88.87
2022-12-12T01:55:02.605Z,87.73
2022-12-12T01:57:42.783Z,90.00
2022-12-12T02:00:10.947Z,89.56
2022-12-12T02:02:39.358Z,88.48
2022-12-12T02:05:15.743Z,90.24
2022-12-12T02:07:42.362Z,89.54
2022-12-12T02:10:08.983Z,90.86
2022-12-12T02:12:35.485Z,89.99
2022-12-12T02:15:02.421Z,89.16
2022-12-12T02:17:31.874Z,89.68
2022-12-12T02:20:36.880Z,89.76
2022-12-12T02:23:34.171Z,90.38
2022-12-12T02:26:38.494Z,88.79
2022-12-12T02:29:19.370Z,90.13
2022-12-12T02:31:51.957Z,89.12
2022-12-12T02:34:21.359Z,90.27
2022-12-12T02:36:58.690Z,89.90
2022-12-12T02:39:57.586Z,88.78
2022-12-12T02:42:38.331Z,88.90
2022-12-12T02:45:35.726Z,88.47
2022-12-12T02:48:19.980Z,89.91
2022-12-12T02:50:48.894Z,89.10
2022-12-12T02:53:20.209Z,88.81
2022-12-12T02:55:46.852Z,90.28
2022-12-12T02:58:13.998Z,88.48
2022-12-12T03:01:11.093Z,89.18
2022-12-12T03:04:20.774Z,88.92
2022-12-12T03:07:24.008Z,88.86
2022-12-12T03:09:50.630Z,89.59
2022-12-12T03:12:27.657Z,89.62
2022-12-12T03:15:07.340Z,89.68
2022-12-12T03:17:46.558Z,89.15
2022-12-12T03:20:22.794Z,89.46
2022-12-12T03:23:07.455Z,88.33
2022-12-12T03:25:41.350Z,88.97
2022-12-12T03:28:13.587Z,89.51
2022-12-12T03:30:46.643Z,89.77
2022-12-12T03:33:36.962Z,89.02
2022-12-12T03:36:09.799Z,88.16
2022-12-12T03:38:41.270Z,88.43
2022-12-12T03:41:15.720Z,88.25
2022-12-12T03:43:49.972Z,88.43
2022-12-12T03:46:28.945Z,88.85
2022-12-12T03:49:08.504Z,88.47
2022-12-12T03:51:43.586Z,88.98
2022-12-12T03:54:23.373Z,88.79
2022-12-12T03:56:56.454Z,88.54
2022-12-12T03:59:29.239Z,89.37
2022-12-12T04:02:00.418Z,88.83
2022-12-12T04:04:32.980Z,88.29
2022-12-12T04:07:23.627Z,89.09
2022-12-12T04:10:09.162Z,89.46
2022-12-12T04:12:58.594Z,89.99
2022-12-12T04:15:28.130Z,88.85
2022-12-12T04:18:06.660Z,88.85
2022-12-12T04:21:16.252Z,88.12
2022-12-12T04:24:02.154Z,88.06
2022-12-12T04:26:39.494Z,88.76
2022-12-12T04:29:33.574Z,87.77
2022-12-12T04:32:20.274Z,88.01
2022-12-12T04:35:06.996Z,88.89
2022-12-12T04:37:47.507Z,88.85
2022-12-12T04:40:36.279Z,89.17
2022-12-12T04:43:07.050Z,88.14
2022-12-12T04:45:42.194Z,88.77
2022-12-12T04:48:14.692Z,89.33
2022-12-12T04:50:43.977Z,88.83
2022-12-12T04:53:18.365Z,88.14
2022-12-12T04:55:52.459Z,88.12
2022-12-12T04:58:18.885Z,87.40
2022-12-12T05:01:07.723Z,88.82
2022-12-12T05:03:50.128Z,88.46
2022-12-12T05:06:22.384Z,87.45
2022-12-12T05:08:53.250Z,88.14
2022-12-12T05:11:22.118Z,88.28
2022-12-12T05:13:49.810Z,88.32
2022-12-12T05:16:19.101Z,88.07
2022-12-12T05:18:46.546Z,88.26
2022-12-12T05:21:13.354Z,88.11
2022-12-12T05:23:39.942Z,88.33
2022-12-12T05:26:16.329Z,87.90
2022-12-12T05:28:42.759Z,88.33
2022-12-12T05:31:09.262Z,88.79
2022-12-12T05:33:35.806Z,87.67
2022-12-12T05:36:02.302Z,88.22
2022-12-12T05:38:28.790Z,89.29
2022-12-12T05:40:55.326Z,88.92
2022-12-12T05:43:21.806Z,89.08
2022-12-12T05:45:48.367Z,88.92
2022-12-12T05:48:17.305Z,88.98
2022-12-12T05:50:47.632Z,88.51
2022-12-12T05:53:14.114Z,88.33
2022-12-12T05:55:40.768Z,88.98
2022-12-12T05:58:07.431Z,89.31
2022-12-12T06:00:34.161Z,88.82
2022-12-12T06:03:00.593Z,88.65
2022-12-12T06:05:27.112Z,88.46
2022-12-12T06:07:53.614Z,89.62
2022-12-12T06:10:20.148Z,89.52
2022-12-12T06:12:46.645Z,89.01
2022-12-12T06:15:13.367Z,89.74
2022-12-12T06:17:40.028Z,88.73
2022-12-12T06:20:07.618Z,89.38
2022-12-12T06:22:35.036Z,89.48
2022-12-12T06:25:01.921Z,88.95
2022-12-12T06:27:28.393Z,89.26
2022-12-12T06:29:54.865Z,89.12
2022-12-12T06:32:21.340Z,88.94
2022-12-12T06:34:47.803Z,88.98
2022-12-12T06:37:17.323Z,89.19
2022-12-12T06:39:44.290Z,88.73
2022-12-12T06:42:10.740Z,88.24
2022-12-12T06:44:37.166Z,88.04
2022-12-12T06:47:03.649Z,89.32
2022-12-12T06:49:30.092Z,90.06
2022-12-12T06:51:56.688Z,91.08
2022-12-12T06:54:23.640Z,88.45
2022-12-12T06:56:50.076Z,88.46
2022-12-12T06:59:16.691Z,87.32
2022-12-12T07:01:43.339Z,87.18
2022-12-12T07:04:11.498Z,87.44
2022-12-12T07:06:37.955Z,88.97
2022-12-12T07:09:04.516Z,88.28
2022-12-12T07:11:31.438Z,88.22
2022-12-12T07:13:58.296Z,88.42
2022-12-12T07:16:24.857Z,88.45
2022-12-12T07:18:51.377Z,87.01
2022-12-12T07:21:20.332Z,87.05
2022-12-12T07:23:47.096Z,87.32
2022-12-12T07:26:16.400Z,87.96
2022-12-12T07:28:42.975Z,87.43
2022-12-12T07:31:12.348Z,87.02
2022-12-12T07:33:43.550Z,96.34
2022-12-12T07:36:12.038Z,87.75
2022-12-12T07:38:38.532Z,84.77
2022-12-12T07:41:07.324Z,87.83
2022-12-12T07:43:41.572Z,87.72
2022-12-12T07:46:14.021Z,86.86
2022-12-12T07:48:40.528Z,86.72
2022-12-12T07:51:07.020Z,84.68
2022-12-12T07:53:33.675Z,87.20
2022-12-12T07:56:00.196Z,87.36
2022-12-12T07:58:27.038Z,87.67
2022-12-12T08:00:53.684Z,87.35
2022-12-12T08:03:20.146Z,87.36
2022-12-12T08:05:46.607Z,86.39
2022-12-12T08:08:13.151Z,87.25
2022-12-12T08:10:40.450Z,86.25
2022-12-12T08:13:06.942Z,87.20
2022-12-12T08:15:33.944Z,86.48
2022-12-12T08:18:00.637Z,85.73
2022-12-12T08:20:27.133Z,85.41
2022-12-12T08:22:53.584Z,85.14
2022-12-12T08:25:20.626Z,86.87
2022-12-12T08:27:47.110Z,87.83
2022-12-12T08:30:13.764Z,86.40
2022-12-12T08:32:40.222Z,85.15
2022-12-12T08:35:07.312Z,86.74
2022-12-12T08:37:34.139Z,85.22
2022-12-12T08:40:00.669Z,86.61
2022-12-12T08:42:27.226Z,87.04
2022-12-12T08:44:53.762Z,85.62
2022-12-12T08:47:20.283Z,85.17
2022-12-12T08:49:46.867Z,85.43
2022-12-12T08:52:13.349Z,85.39
2022-12-12T08:54:40.053Z,83.41
2022-12-12T08:57:06.645Z,84.44
2022-12-12T08:59:33.136Z,85.12
2022-12-12T09:01:59.802Z,83.48
2022-12-12T09:04:26.383Z,84.60
2022-12-12T09:06:53.133Z,83.48
2022-12-12T09:09:19.600Z,83.02
2022-12-12T09:11:46.076Z,83.54
2022-12-12T09:14:12.648Z,84.27
2022-12-12T09:16:39.165Z,83.61
2022-12-12T09:19:05.714Z,82.88
2022-12-12T09:21:32.569Z,84.03
2022-12-12T09:23:59.270Z,82.82
2022-12-12T09:26:25.893Z,82.85
2022-12-12T09:28:52.358Z,84.57
2022-12-12T09:31:19.215Z,82.00
2022-12-12T09:33:45.814Z,82.43
2022-12-12T09:36:13.855Z,83.47
2022-12-12T09:38:41.265Z,83.02
2022-12-12T09:41:24.466Z,83.54
2022-12-12T09:44:06.280Z,83.71
2022-12-12T09:46:50.576Z,83.53
2022-12-12T09:49:28.300Z,82.37
2022-12-12T09:51:57.440Z,81.86
2022-12-12T09:54:26.853Z,82.76
2022-12-12T09:57:06.174Z,81.19
2022-12-12T09:59:55.431Z,82.90
2022-12-12T10:02:39.907Z,82.37
2022-12-12T10:05:35.920Z,82.15
2022-12-12T10:08:15.180Z,83.54
2022-12-12T10:10:44.953Z,82.00
2022-12-12T10:13:21.339Z,82.51
2022-12-12T10:15:52.200Z,83.48
2022-12-12T10:18:41.530Z,82.68
2022-12-12T10:21:33.889Z,81.94
2022-12-12T10:24:07.685Z,80.25
2022-12-12T10:26:34.109Z,81.59
2022-12-12T10:29:13.184Z,80.48
2022-12-12T10:32:03.816Z,79.12
2022-12-12T10:34:45.664Z,79.58
2022-12-12T10:37:42.771Z,73.83
2022-12-12T10:40:39.722Z,70.28
2022-12-12T10:43:23.009Z,68.92
2022-12-12T10:45:49.533Z,68.49
2022-12-12T10:48:16.018Z,69.84
2022-12-12T10:50:50.266Z,66.97
2022-12-12T10:53:16.809Z,68.62
2022-12-12T10:55:48.322Z,68.40
2022-12-12T10:58:17.094Z,70.01
2022-12-12T11:00:46.132Z,69.20
2022-12-12T11:03:36.998Z,71.05
2022-12-12T11:06:07.485Z,70.35
2022-12-12T11:08:36.981Z,72.43
2022-12-12T11:11:06.186Z,71.27
2022-12-12T11:13:44.001Z,72.69
2022-12-12T11:16:39.498Z,74.43
2022-12-12T11:19:20.819Z,75.58
2022-12-12T11:21:47.814Z,75.44
2022-12-12T11:24:23.782Z,73.85
2022-12-12T11:26:59.484Z,75.03
2022-12-12T11:29:44.308Z,77.61
2022-12-12T11:32:13.701Z,76.01
2022-12-12T11:34:46.046Z,75.11
2022-12-12T11:37:23.048Z,75.36
2022-12-12T11:39:52.279Z,78.45
2022-12-12T11:42:34.512Z,77.04
2022-12-12T11:45:21.316Z,75.78
2022-12-12T11:47:48.412Z,75.42
2022-12-12T11:50:19.641Z,74.45
2022-12-12T11:52:46.725Z,75.20
2022-12-12T11:55:16.265Z,73.35
2022-12-12T11:58:25.706Z,74.76
2022-12-12T12:01:01.594Z,73.97
2022-12-12T12:04:16.206Z,73.65
2022-12-12T12:07:01.296Z,73.22
2022-12-12T12:09:52.357Z,74.20
2022-12-12T12:12:36.803Z,75.92
2022-12-12T12:15:18.241Z,74.90
2022-12-12T12:17:47.640Z,74.88
2022-12-12T12:20:40.239Z,75.35
2022-12-12T12:23:28.655Z,74.45
2022-12-12T12:26:07.047Z,75.82
2022-12-12T12:29:06.517Z,74.60
2022-12-12T12:31:49.445Z,78.21
2022-12-12T12:34:40.555Z,74.29
2022-12-12T12:37:17.481Z,74.08
2022-12-12T12:39:53.875Z,73.33
2022-12-12T12:42:29.458Z,72.48
2022-12-12T12:45:06.758Z,72.52
2022-12-12T12:47:47.712Z,73.43
2022-12-12T12:50:40.278Z,74.07
2022-12-12T12:53:09.740Z,73.52
2022-12-12T12:55:44.561Z,73.93
2022-12-12T12:58:20.093Z,74.82
2022-12-12T13:01:07.563Z,73.38
2022-12-12T13:03:55.203Z,73.42
2022-12-12T13:06:33.978Z,74.21
2022-12-12T13:09:15.615Z,74.38
2022-12-12T13:11:47.192Z,73.42
2022-12-12T13:14:26.981Z,72.97
2022-12-12T13:16:58.488Z,75.90
2022-12-12T13:19:35.617Z,71.69
2022-12-12T13:22:09.176Z,70.55
2022-12-12T13:24:42.991Z,70.48
2022-12-12T13:27:22.438Z,70.49
2022-12-12T13:30:00.063Z,70.18
2022-12-12T13:32:29.504Z,69.79
2022-12-12T13:35:00.823Z,70.70
2022-12-12T13:37:30.271Z,72.27
2022-12-12T13:40:04.729Z,72.86
2022-12-12T13:43:07.198Z,72.89
2022-12-12T13:45:43.028Z,72.70
2022-12-12T13:48:29.556Z,74.80
2022-12-12T13:51:36.159Z,75.00
2022-12-12T13:54:13.348Z,73.93
2022-12-12T13:56:46.094Z,73.74
2022-12-12T13:59:27.645Z,74.28
2022-12-12T14:01:59.254Z,74.66
2022-12-12T14:04:43.891Z,84.09
2022-12-12T14:07:23.149Z,75.86
2022-12-12T14:09:54.376Z,76.74
2022-12-12T14:12:31.153Z,75.80
2022-12-12T14:15:00.079Z,76.37
2022-12-12T14:17:29.160Z,76.23
2022-12-12T14:19:58.900Z,77.47
2022-12-12T14:22:37.898Z,76.86
2022-12-12T14:25:17.764Z,77.76
2022-12-12T14:27:50.118Z,78.57
2022-12-12T14:30:25.861Z,77.80
2022-12-12T14:33:13.921Z,77.87
2022-12-12T14:35:51.235Z,78.27
2022-12-12T14:38:47.591Z,79.21
2022-12-12T14:41:32.326Z,77.98
2022-12-12T14:44:36.427Z,79.49
2022-12-12T14:46:49.828Z,78.95
2022-12-12T14:49:17.939Z,78.40
2022-12-12T14:51:46.958Z,78.36
2022-12-12T14:54:19.933Z,79.09
2022-12-12T14:56:58.812Z,79.30
2022-12-12T14:59:29.736Z,80.74
2022-12-12T15:02:01.124Z,81.27
2022-12-12T15:04:39.567Z,80.65
2022-12-12T15:07:21.729Z,80.04
2022-12-12T15:09:49.271Z,79.90
2022-12-12T15:12:22.572Z,80.64
2022-12-12T15:14:49.149Z,79.66
2022-12-12T15:17:17.141Z,79.35
2022-12-12T15:19:58.160Z,79.48
2022-12-12T15:22:29.661Z,80.10
2022-12-12T15:24:59.751Z,79.98
2022-12-12T15:27:41.563Z,80.84
2022-12-12T15:30:33.254Z,80.74
2022-12-12T15:33:01.734Z,81.50
2022-12-12T15:35:28.340Z,81.16
2022-12-12T15:38:02.621Z,81.84
2022-12-12T15:40:30.022Z,82.01
2022-12-12T15:43:00.301Z,83.03
2022-12-12T15:45:39.601Z,82.28
2022-12-12T15:48:12.386Z,82.68
2022-12-12T15:50:41.875Z,81.84
2022-12-12T15:53:25.272Z,81.89
2022-12-12T15:56:03.674Z,82.83
2022-12-12T15:58:34.825Z,82.30
2022-12-12T16:01:05.474Z,83.12
2022-12-12T16:03:32.368Z,90.19
2022-12-12T16:06:17.219Z,82.66
2022-12-12T16:08:46.720Z,82.56
2022-12-12T16:11:41.275Z,82.97
2022-12-12T16:14:32.587Z,83.30
2022-12-12T16:17:19.815Z,82.75
2022-12-12T16:20:10.969Z,83.37
2022-12-12T16:22:44.770Z,83.70
2022-12-12T16:25:11.281Z,83.30
2022-12-12T16:27:37.796Z,84.31
2022-12-12T16:30:05.401Z,84.69
2022-12-12T16:32:31.911Z,83.65
2022-12-12T16:34:58.396Z,83.30
2022-12-12T16:37:24.861Z,83.38
2022-12-12T16:39:51.316Z,84.04
2022-12-12T16:42:20.949Z,84.64
2022-12-12T16:44:47.787Z,84.35
2022-12-12T16:47:22.628Z,83.34
2022-12-12T16:49:49.761Z,83.64
2022-12-12T16:52:19.435Z,83.85
2022-12-12T16:54:52.801Z,84.05
2022-12-12T16:57:19.896Z,84.47
2022-12-12T16:59:46.544Z,84.84
2022-12-12T17:02:21.774Z,83.79
2022-12-12T17:04:49.687Z,83.83
2022-12-12T17:07:16.534Z,84.44
2022-12-12T17:09:44.127Z,83.40
2022-12-12T17:12:12.953Z,83.55
2022-12-12T17:14:39.543Z,83.49
2022-12-12T17:17:06.671Z,83.19
2022-12-12T17:19:33.308Z,83.86
2022-12-12T17:21:59.837Z,83.50
2022-12-12T17:24:26.422Z,83.49
2022-12-12T17:26:52.915Z,84.78
2022-12-12T17:29:19.335Z,83.87
2022-12-12T17:31:46.090Z,83.67
2022-12-12T17:34:12.600Z,83.92
2022-12-12T17:36:39.052Z,83.67
2022-12-12T17:39:05.760Z,83.33
2022-12-12T17:41:32.224Z,83.97
2022-12-12T17:43:59.036Z,84.47
2022-12-12T17:46:27.773Z,83.93
2022-12-12T17:48:56.718Z,83.60
2022-12-12T17:51:24.245Z,83.78
2022-12-12T17:53:52.569Z,84.07
2022-12-12T17:56:24.584Z,84.11
2022-12-12T17:58:51.552Z,85.33
2022-12-12T18:01:20.743Z,84.32
2022-12-12T18:03:48.585Z,83.69
2022-12-12T18:06:15.888Z,83.59
2022-12-12T18:08:43.353Z,83.64
2022-12-12T18:11:12.943Z,82.93
2022-12-12T18:13:40.926Z,82.58
2022-12-12T18:16:09.461Z,82.54
2022-12-12T18:18:36.121Z,81.94
2022-12-12T18:21:07.915Z,82.71
2022-12-12T18:23:34.471Z,83.70
2022-12-12T18:26:17.248Z,83.19
2022-12-12T18:28:50.809Z,83.13
2022-12-12T18:31:17.343Z,82.62
2022-12-12T18:33:43.859Z,82.70
2022-12-12T18:36:14.377Z,82.95
2022-12-12T18:38:47.258Z,82.71
2022-12-12T18:41:15.528Z,82.25
2022-12-12T18:43:42.272Z,82.86
2022-12-12T18:46:14.861Z,82.19
2022-12-12T18:48:43.295Z,82.10
2022-12-12T18:51:12.605Z,82.00
2022-12-12T18:53:41.234Z,82.51
2022-12-12T18:56:09.658Z,82.78
2022-12-12T18:58:36.577Z,83.12
2022-12-12T19:01:05.022Z,83.03
2022-12-12T19:03:31.766Z,82.62
2022-12-12T19:05:58.321Z,82.21
2022-12-12T19:08:24.848Z,82.77
2022-12-12T19:10:51.338Z,82.73
2022-12-12T19:13:17.764Z,82.50
2022-12-12T19:15:44.248Z,82.31
2022-12-12T19:18:10.715Z,82.52
2022-12-12T19:20:37.189Z,82.30
2022-12-12T19:23:03.697Z,83.30
2022-12-12T19:25:30.294Z,83.50
2022-12-12T19:27:58.394Z,83.21
2022-12-12T19:30:28.003Z,83.18
2022-12-12T19:32:55.176Z,83.47
2022-12-12T19:35:22.640Z,82.64
2022-12-12T19:37:49.119Z,81.75
2022-12-12T19:40:16.481Z,82.35
2022-12-12T19:42:43.309Z,81.77
2022-12-12T19:45:10.129Z,82.50
2022-12-12T19:47:36.638Z,81.83
2022-12-12T19:50:03.782Z,82.10
2022-12-12T19:52:30.246Z,81.35
2022-12-12T19:54:56.662Z,81.61
2022-12-12T19:57:26.210Z,81.73
2022-12-12T19:59:53.526Z,81.46
2022-12-12T20:02:20.172Z,81.56
2022-12-12T20:04:46.700Z,81.47
2022-12-12T20:07:13.198Z,81.71
2022-12-12T20:09:39.655Z,82.21
2022-12-12T20:12:06.223Z,82.47
2022-12-12T20:14:35.187Z,82.44
2022-12-12T20:17:02.859Z,83.12
2022-12-12T20:19:29.653Z,82.50
2022-12-12T20:22:01.280Z,82.19
2022-12-12T20:24:29.218Z,82.40
2022-12-12T20:26:56.078Z,82.03
2022-12-12T20:29:23.385Z,81.68
2022-12-12T20:31:50.013Z,82.38
2022-12-12T20:34:18.473Z,83.15
2022-12-12T20:36:45.839Z,82.76
2022-12-12T20:39:19.350Z,84.50
2022-12-12T20:41:45.796Z,85.45
2022-12-12T20:44:13.534Z,85.56
2022-12-12T20:46:42.927Z,85.35
2022-12-12T20:49:13.613Z,85.48
2022-12-12T20:51:57.345Z,84.03
2022-12-12T20:54:26.401Z,84.40
2022-12-12T20:56:53.939Z,84.33
2022-12-12T20:59:20.491Z,83.18
2022-12-12T21:01:47.616Z,84.35
2022-12-12T21:04:14.609Z,83.91
2022-12-12T21:06:48.269Z,83.93
2022-12-12T21:09:22.665Z,84.44
2022-12-12T21:11:49.511Z,85.31
2022-12-12T21:14:15.978Z,84.26
2022-12-12T21:16:42.409Z,84.70
2022-12-12T21:19:11.659Z,84.37
2022-12-12T21:21:39.839Z,84.38
2022-12-12T21:24:06.667Z,84.27
2022-12-12T21:26:34.022Z,84.07
2022-12-12T21:29:01.841Z,84.62
2022-12-12T21:31:38.186Z,84.67
2022-12-12T21:34:06.268Z,83.35
2022-12-12T21:36:33.640Z,83.90
2022-12-12T21:39:01.623Z,83.98
2022-12-12T21:41:28.691Z,85.00
2022-12-12T21:43:56.585Z,84.81
2022-12-12T21:46:24.795Z,86.08
2022-12-12T21:49:10.751Z,86.39
2022-12-12T21:51:37.637Z,85.79
2022-12-12T21:54:05.884Z,85.01
2022-12-12T21:56:32.527Z,85.53
2022-12-12T21:58:59.800Z,85.51
2022-12-12T22:01:26.865Z,85.21
2022-12-12T22:03:53.606Z,86.03
2022-12-12T22:06:25.259Z,85.42
2022-12-12T22:08:53.994Z,84.15
2022-12-12T22:11:33.819Z,85.36
2022-12-12T22:14:08.443Z,85.25
2022-12-12T22:16:35.402Z,84.65
2022-12-12T22:19:05.923Z,84.21
2022-12-12T22:21:33.165Z,84.98
2022-12-12T22:24:00.593Z,83.92
2022-12-12T22:26:35.212Z,84.65
2022-12-12T22:29:05.460Z,84.83
2022-12-12T22:31:35.279Z,85.18
2022-12-12T22:34:05.206Z,85.96
2022-12-12T22:36:34.378Z,85.88
2022-12-12T22:39:01.593Z,84.96
2022-12-12T22:41:29.681Z,85.46
2022-12-12T22:43:58.846Z,85.06
2022-12-12T22:46:26.372Z,85.34
2022-12-12T22:48:55.153Z,85.95
2022-12-12T22:51:33.334Z,86.52
2022-12-12T22:54:02.654Z,86.40
2022-12-12T22:56:29.996Z,86.98
2022-12-12T22:58:56.699Z,87.12
2022-12-12T23:01:24.468Z,86.84
2022-12-12T23:03:51.914Z,87.55
2022-12-12T23:06:19.705Z,87.27
2022-12-12T23:08:57.832Z,87.62
2022-12-12T23:11:26.430Z,87.44
2022-12-12T23:14:03.379Z,87.42
2022-12-12T23:16:35.670Z,88.03
2022-12-12T23:19:04.657Z,88.00
2022-12-12T23:21:31.860Z,87.09
2022-12-12T23:23:58.313Z,88.56
2022-12-12T23:26:29.797Z,88.88
2022-12-12T23:28:57.853Z,89.43
2022-12-12T23:31:29.836Z,87.84
2022-12-12T23:33:59.663Z,89.34
2022-12-12T23:36:27.110Z,87.57
2022-12-12T23:38:58.313Z,90.45
2022-12-12T23:41:25.633Z,88.65
2022-12-12T23:43:52.729Z,89.75
2022-12-12T23:46:28.704Z,89.87
2022-12-12T23:49:17.003Z,89.44
2022-12-12T23:51:46.332Z,89.30
2022-12-12T23:54:15.935Z,90.65
2022-12-12T23:56:43.263Z,90.46
2022-12-12T23:59:15.514Z,90.92
